sensor_id;sensor_type;location;lat;lon;timestamp;P1;durP1;ratioP1;P2;durP2;ratioP2
84818;SDS011;75053;51.080;13.712;2024-03-23T00:55:39;15.10;;;11.33;;
84818;SDS011;75053;51.080;13.712;2024-03-23T00:58:05;15.50;;;11.70;;
84818;SDS011;75053;51.080;13.712;2024-03-23T01:00:31;17.27;;;11.50;;
84818;SDS011;75053;51.080;13.712;2024-03-23T01:02:56;16.30;;;11.73;;
84818;SDS011;75053;51.080;13.712;2024-03-23T01:05:23;20.30;;;12.23;;
84818;SDS011;75053;51.080;13.712;2024-03-23T01:07:48;18.67;;;11.43;;
84818;SDS011;75053;51.080;13.712;2024-03-23T01:10:14;14.97;;;11.57;;
84818;SDS011;75053;51.080;13.712;2024-03-23T01:12:39;14.63;;;11.40;;
84818;SDS011;75053;51.080;13.712;2024-03-23T01:15:05;17.07;;;12.03;;
84818;SDS011;75053;51.080;13.712;2024-03-23T01:17:30;17.90;;;12.60;;
84818;SDS011;75053;51.080;13.712;2024-03-23T01:19:55;17.97;;;12.33;;
84818;SDS011;75053;51.080;13.712;2024-03-23T01:22:21;18.43;;;12.70;;
84818;SDS011;75053;51.080;13.712;2024-03-23T01:24:46;18.93;;;13.23;;
84818;SDS011;75053;51.080;13.712;2024-03-23T01:27:12;20.30;;;14.87;;
84818;SDS011;75053;51.080;13.712;2024-03-23T01:29:37;19.77;;;13.33;;
84818;SDS011;75053;51.080;13.712;2024-03-23T01:32:03;19.00;;;13.87;;
84818;SDS011;75053;51.080;13.712;2024-03-23T01:34:29;21.47;;;14.77;;
84818;SDS011;75053;51.080;13.712;2024-03-23T01:36:58;27.77;;;15.13;;
84818;SDS011;75053;51.080;13.712;2024-03-23T01:39:23;19.33;;;13.80;;
84818;SDS011;75053;51.080;13.712;2024-03-23T01:41:49;21.00;;;14.27;;
84818;SDS011;75053;51.080;13.712;2024-03-23T01:44:15;19.53;;;13.80;;
84818;SDS011;75053;51.080;13.712;2024-03-23T01:46:41;23.97;;;15.43;;
84818;SDS011;75053;51.080;13.712;2024-03-23T01:49:07;18.47;;;13.53;;
84818;SDS011;75053;51.080;13.712;2024-03-23T01:51:33;22.27;;;15.07;;
84818;SDS011;75053;51.080;13.712;2024-03-23T01:54:01;25.23;;;15.87;;
84818;SDS011;75053;51.080;13.712;2024-03-23T01:56:34;21.43;;;14.83;;
84818;SDS011;75053;51.080;13.712;2024-03-23T01:59:03;30.97;;;17.03;;
84818;SDS011;75053;51.080;13.712;2024-03-23T02:01:29;26.23;;;17.30;;
84818;SDS011;75053;51.080;13.712;2024-03-23T02:03:55;24.13;;;17.23;;
84818;SDS011;75053;51.080;13.712;2024-03-23T02:06:20;25.03;;;16.57;;
84818;SDS011;75053;51.080;13.712;2024-03-23T02:08:47;29.60;;;17.17;;
84818;SDS011;75053;51.080;13.712;2024-03-23T02:11:13;25.73;;;17.70;;
84818;SDS011;75053;51.080;13.712;2024-03-23T02:13:38;27.90;;;17.57;;
84818;SDS011;75053;51.080;13.712;2024-03-23T02:16:04;20.93;;;15.57;;
84818;SDS011;75053;51.080;13.712;2024-03-23T02:18:30;25.47;;;16.40;;
84818;SDS011;75053;51.080;13.712;2024-03-23T02:20:56;24.77;;;15.90;;
84818;SDS011;75053;51.080;13.712;2024-03-23T02:23:21;24.97;;;16.70;;
84818;SDS011;75053;51.080;13.712;2024-03-23T02:25:47;22.90;;;15.48;;
84818;SDS011;75053;51.080;13.712;2024-03-23T02:28:15;30.00;;;17.40;;
84818;SDS011;75053;51.080;13.712;2024-03-23T02:30:40;25.60;;;17.13;;
84818;SDS011;75053;51.080;13.712;2024-03-23T02:33:06;24.10;;;17.00;;
84818;SDS011;75053;51.080;13.712;2024-03-23T02:35:31;25.27;;;17.07;;
84818;SDS011;75053;51.080;13.712;2024-03-23T02:37:57;20.07;;;14.40;;
84818;SDS011;75053;51.080;13.712;2024-03-23T02:40:23;23.70;;;16.17;;
84818;SDS011;75053;51.080;13.712;2024-03-23T02:42:54;24.83;;;16.63;;
84818;SDS011;75053;51.080;13.712;2024-03-23T02:45:20;24.37;;;17.17;;
84818;SDS011;75053;51.080;13.712;2024-03-23T02:47:46;25.97;;;16.43;;
84818;SDS011;75053;51.080;13.712;2024-03-23T02:50:11;23.73;;;15.33;;
84818;SDS011;75053;51.080;13.712;2024-03-23T02:52:37;26.88;;;16.75;;
84818;SDS011;75053;51.080;13.712;2024-03-23T02:55:03;25.07;;;16.03;;
84818;SDS011;75053;51.080;13.712;2024-03-23T02:57:29;23.67;;;16.60;;
84818;SDS011;75053;51.080;13.712;2024-03-23T02:59:55;24.90;;;16.80;;
84818;SDS011;75053;51.080;13.712;2024-03-23T03:02:21;25.35;;;17.08;;
84818;SDS011;75053;51.080;13.712;2024-03-23T03:04:46;26.70;;;17.27;;
84818;SDS011;75053;51.080;13.712;2024-03-23T03:07:12;24.02;;;16.42;;
84818;SDS011;75053;51.080;13.712;2024-03-23T03:09:38;26.60;;;17.57;;
84818;SDS011;75053;51.080;13.712;2024-03-23T03:12:05;24.07;;;16.97;;
84818;SDS011;75053;51.080;13.712;2024-03-23T03:14:31;24.90;;;17.38;;
84818;SDS011;75053;51.080;13.712;2024-03-23T03:16:56;24.63;;;17.43;;
84818;SDS011;75053;51.080;13.712;2024-03-23T03:19:21;24.48;;;16.98;;
84818;SDS011;75053;51.080;13.712;2024-03-23T03:21:47;24.85;;;16.67;;
84818;SDS011;75053;51.080;13.712;2024-03-23T03:24:15;27.67;;;18.02;;
84818;SDS011;75053;51.080;13.712;2024-03-23T03:26:41;26.35;;;18.13;;
84818;SDS011;75053;51.080;13.712;2024-03-23T03:29:07;28.35;;;18.92;;
84818;SDS011;75053;51.080;13.712;2024-03-23T03:31:32;27.95;;;17.65;;
84818;SDS011;75053;51.080;13.712;2024-03-23T03:33:58;28.48;;;18.48;;
84818;SDS011;75053;51.080;13.712;2024-03-23T03:36:23;27.63;;;18.42;;
84818;SDS011;75053;51.080;13.712;2024-03-23T03:38:49;26.00;;;18.45;;
84818;SDS011;75053;51.080;13.712;2024-03-23T03:41:15;26.50;;;18.23;;
84818;SDS011;75053;51.080;13.712;2024-03-23T03:43:40;26.90;;;17.98;;
84818;SDS011;75053;51.080;13.712;2024-03-23T03:46:06;27.33;;;19.20;;
84818;SDS011;75053;51.080;13.712;2024-03-23T03:48:33;26.20;;;18.83;;
84818;SDS011;75053;51.080;13.712;2024-03-23T03:50:58;25.70;;;18.45;;
84818;SDS011;75053;51.080;13.712;2024-03-23T03:53:24;27.98;;;18.40;;
84818;SDS011;75053;51.080;13.712;2024-03-23T03:55:49;29.42;;;19.42;;
84818;SDS011;75053;51.080;13.712;2024-03-23T03:58:14;29.02;;;19.23;;
84818;SDS011;75053;51.080;13.712;2024-03-23T04:00:40;30.80;;;20.00;;
84818;SDS011;75053;51.080;13.712;2024-03-23T04:03:05;31.38;;;20.27;;
84818;SDS011;75053;51.080;13.712;2024-03-23T04:05:31;26.48;;;18.23;;
84818;SDS011;75053;51.080;13.712;2024-03-23T04:07:56;27.40;;;18.77;;
84818;SDS011;75053;51.080;13.712;2024-03-23T04:10:22;30.02;;;18.90;;
84818;SDS011;75053;51.080;13.712;2024-03-23T04:12:47;29.90;;;20.02;;
84818;SDS011;75053;51.080;13.712;2024-03-23T04:15:13;25.50;;;18.17;;
84818;SDS011;75053;51.080;13.712;2024-03-23T04:17:39;27.88;;;18.40;;
84818;SDS011;75053;51.080;13.712;2024-03-23T04:20:07;25.98;;;18.00;;
84818;SDS011;75053;51.080;13.712;2024-03-23T04:22:34;27.30;;;17.20;;
84818;SDS011;75053;51.080;13.712;2024-03-23T04:25:00;23.75;;;15.55;;
84818;SDS011;75053;51.080;13.712;2024-03-23T04:27:38;23.27;;;16.40;;
84818;SDS011;75053;51.080;13.712;2024-03-23T04:30:04;22.10;;;15.35;;
84818;SDS011;75053;51.080;13.712;2024-03-23T04:32:35;21.50;;;15.67;;
84818;SDS011;75053;51.080;13.712;2024-03-23T04:35:01;25.08;;;17.58;;
84818;SDS011;75053;51.080;13.712;2024-03-23T04:37:26;25.77;;;17.50;;
84818;SDS011;75053;51.080;13.712;2024-03-23T04:39:52;31.60;;;17.50;;
84818;SDS011;75053;51.080;13.712;2024-03-23T04:42:17;26.77;;;17.08;;
84818;SDS011;75053;51.080;13.712;2024-03-23T04:44:43;25.40;;;17.67;;
84818;SDS011;75053;51.080;13.712;2024-03-23T04:47:09;26.87;;;18.93;;
84818;SDS011;75053;51.080;13.712;2024-03-23T04:49:36;26.97;;;18.77;;
84818;SDS011;75053;51.080;13.712;2024-03-23T04:52:02;28.63;;;17.67;;
84818;SDS011;75053;51.080;13.712;2024-03-23T04:54:29;25.20;;;16.93;;
84818;SDS011;75053;51.080;13.712;2024-03-23T04:56:54;27.63;;;18.70;;
84818;SDS011;75053;51.080;13.712;2024-03-23T04:59:20;32.70;;;18.45;;
84818;SDS011;75053;51.080;13.712;2024-03-23T05:01:45;26.17;;;18.33;;
84818;SDS011;75053;51.080;13.712;2024-03-23T05:04:11;29.43;;;19.30;;
84818;SDS011;75053;51.080;13.712;2024-03-23T05:06:36;31.80;;;19.30;;
84818;SDS011;75053;51.080;13.712;2024-03-23T05:09:01;31.35;;;21.40;;
84818;SDS011;75053;51.080;13.712;2024-03-23T05:11:39;26.30;;;18.67;;
84818;SDS011;75053;51.080;13.712;2024-03-23T05:14:06;31.65;;;20.77;;
84818;SDS011;75053;51.080;13.712;2024-03-23T05:16:32;32.87;;;19.30;;
84818;SDS011;75053;51.080;13.712;2024-03-23T05:18:59;28.58;;;20.08;;
84818;SDS011;75053;51.080;13.712;2024-03-23T05:21:25;35.07;;;21.50;;
84818;SDS011;75053;51.080;13.712;2024-03-23T05:23:51;30.63;;;21.03;;
84818;SDS011;75053;51.080;13.712;2024-03-23T05:26:18;32.17;;;21.30;;
84818;SDS011;75053;51.080;13.712;2024-03-23T05:28:43;33.00;;;21.20;;
84818;SDS011;75053;51.080;13.712;2024-03-23T05:31:09;28.20;;;20.25;;
84818;SDS011;75053;51.080;13.712;2024-03-23T05:33:35;38.07;;;21.47;;
84818;SDS011;75053;51.080;13.712;2024-03-23T05:36:06;34.67;;;21.80;;
84818;SDS011;75053;51.080;13.712;2024-03-23T05:38:36;32.20;;;21.27;;
84818;SDS011;75053;51.080;13.712;2024-03-23T05:41:01;36.50;;;21.57;;
84818;SDS011;75053;51.080;13.712;2024-03-23T05:43:27;32.83;;;21.47;;
84818;SDS011;75053;51.080;13.712;2024-03-23T05:45:56;32.10;;;21.95;;
84818;SDS011;75053;51.080;13.712;2024-03-23T05:48:26;34.77;;;21.90;;
84818;SDS011;75053;51.080;13.712;2024-03-23T05:50:53;30.40;;;21.00;;
84818;SDS011;75053;51.080;13.712;2024-03-23T05:53:19;31.87;;;19.87;;
84818;SDS011;75053;51.080;13.712;2024-03-23T05:55:48;31.40;;;21.33;;
84818;SDS011;75053;51.080;13.712;2024-03-23T05:58:17;32.03;;;21.13;;
84818;SDS011;75053;51.080;13.712;2024-03-23T06:00:43;34.22;;;21.05;;
84818;SDS011;75053;51.080;13.712;2024-03-23T06:03:10;31.20;;;19.95;;
84818;SDS011;75053;51.080;13.712;2024-03-23T06:05:39;30.38;;;21.20;;
84818;SDS011;75053;51.080;13.712;2024-03-23T06:08:04;31.58;;;21.90;;
84818;SDS011;75053;51.080;13.712;2024-03-23T06:10:30;31.25;;;21.55;;
84818;SDS011;75053;51.080;13.712;2024-03-23T06:12:56;40.30;;;21.80;;
84818;SDS011;75053;51.080;13.712;2024-03-23T06:15:23;32.42;;;21.45;;
84818;SDS011;75053;51.080;13.712;2024-03-23T06:17:49;32.43;;;21.57;;
84818;SDS011;75053;51.080;13.712;2024-03-23T06:20:14;33.80;;;22.55;;
84818;SDS011;75053;51.080;13.712;2024-03-23T06:22:40;34.63;;;22.77;;
84818;SDS011;75053;51.080;13.712;2024-03-23T06:25:06;34.63;;;22.40;;
84818;SDS011;75053;51.080;13.712;2024-03-23T06:27:32;33.67;;;22.40;;
84818;SDS011;75053;51.080;13.712;2024-03-23T06:29:58;38.13;;;23.53;;
84818;SDS011;75053;51.080;13.712;2024-03-23T06:32:27;33.53;;;22.70;;
84818;SDS011;75053;51.080;13.712;2024-03-23T06:34:54;35.92;;;22.95;;
84818;SDS011;75053;51.080;13.712;2024-03-23T06:37:19;33.60;;;22.70;;
84818;SDS011;75053;51.080;13.712;2024-03-23T06:39:45;30.87;;;21.27;;
84818;SDS011;75053;51.080;13.712;2024-03-23T06:42:11;32.83;;;21.80;;
84818;SDS011;75053;51.080;13.712;2024-03-23T06:44:38;37.83;;;21.07;;
84818;SDS011;75053;51.080;13.712;2024-03-23T06:47:04;33.17;;;20.85;;
84818;SDS011;75053;51.080;13.712;2024-03-23T06:49:29;31.80;;;22.77;;
84818;SDS011;75053;51.080;13.712;2024-03-23T06:51:55;32.17;;;22.98;;
84818;SDS011;75053;51.080;13.712;2024-03-23T06:54:20;31.85;;;22.85;;
84818;SDS011;75053;51.080;13.712;2024-03-23T06:56:46;34.00;;;23.20;;
84818;SDS011;75053;51.080;13.712;2024-03-23T06:59:11;36.80;;;24.47;;
84818;SDS011;75053;51.080;13.712;2024-03-23T07:01:37;32.03;;;22.97;;
84818;SDS011;75053;51.080;13.712;2024-03-23T07:04:02;35.97;;;23.87;;
84818;SDS011;75053;51.080;13.712;2024-03-23T07:06:29;35.40;;;24.07;;
84818;SDS011;75053;51.080;13.712;2024-03-23T07:08:57;41.00;;;24.88;;
84818;SDS011;75053;51.080;13.712;2024-03-23T07:11:22;35.90;;;24.50;;
84818;SDS011;75053;51.080;13.712;2024-03-23T07:13:52;42.23;;;25.83;;
84818;SDS011;75053;51.080;13.712;2024-03-23T07:16:19;46.73;;;26.30;;
84818;SDS011;75053;51.080;13.712;2024-03-23T07:18:45;40.60;;;25.03;;
84818;SDS011;75053;51.080;13.712;2024-03-23T07:21:10;39.67;;;24.57;;
84818;SDS011;75053;51.080;13.712;2024-03-23T07:23:36;43.50;;;26.53;;
84818;SDS011;75053;51.080;13.712;2024-03-23T07:28:30;37.45;;;25.05;;
84818;SDS011;75053;51.080;13.712;2024-03-23T07:31:01;39.97;;;23.98;;
84818;SDS011;75053;51.080;13.712;2024-03-23T07:33:37;40.80;;;23.48;;
84818;SDS011;75053;51.080;13.712;2024-03-23T07:36:06;34.92;;;23.08;;
84818;SDS011;75053;51.080;13.712;2024-03-23T07:38:32;31.65;;;22.92;;
84818;SDS011;75053;51.080;13.712;2024-03-23T07:41:09;34.05;;;22.15;;
84818;SDS011;75053;51.080;13.712;2024-03-23T07:43:36;30.38;;;21.58;;
84818;SDS011;75053;51.080;13.712;2024-03-23T07:46:05;31.95;;;21.85;;
84818;SDS011;75053;51.080;13.712;2024-03-23T07:48:31;33.10;;;21.50;;
84818;SDS011;75053;51.080;13.712;2024-03-23T07:53:31;31.27;;;21.55;;
84818;SDS011;75053;51.080;13.712;2024-03-23T07:55:58;32.83;;;22.55;;
84818;SDS011;75053;51.080;13.712;2024-03-23T07:58:29;35.20;;;21.08;;
84818;SDS011;75053;51.080;13.712;2024-03-23T08:00:55;29.55;;;21.13;;
84818;SDS011;75053;51.080;13.712;2024-03-23T08:03:22;30.15;;;21.17;;
84818;SDS011;75053;51.080;13.712;2024-03-23T08:05:48;32.55;;;21.90;;
84818;SDS011;75053;51.080;13.712;2024-03-23T08:08:14;33.45;;;23.00;;
84818;SDS011;75053;51.080;13.712;2024-03-23T08:10:52;28.38;;;20.50;;
84818;SDS011;75053;51.080;13.712;2024-03-23T08:13:28;28.50;;;20.88;;
84818;SDS011;75053;51.080;13.712;2024-03-23T08:15:57;31.13;;;21.17;;
84818;SDS011;75053;51.080;13.712;2024-03-23T08:18:26;32.13;;;19.90;;
84818;SDS011;75053;51.080;13.712;2024-03-23T08:20:59;29.55;;;21.48;;
84818;SDS011;75053;51.080;13.712;2024-03-23T08:23:29;32.97;;;22.08;;
84818;SDS011;75053;51.080;13.712;2024-03-23T08:26:06;27.45;;;21.25;;
84818;SDS011;75053;51.080;13.712;2024-03-23T08:28:33;31.58;;;21.48;;
84818;SDS011;75053;51.080;13.712;2024-03-23T08:31:03;28.27;;;22.00;;
84818;SDS011;75053;51.080;13.712;2024-03-23T08:33:33;29.52;;;21.83;;
84818;SDS011;75053;51.080;13.712;2024-03-23T08:36:02;28.17;;;20.90;;
84818;SDS011;75053;51.080;13.712;2024-03-23T08:38:29;27.33;;;20.60;;
84818;SDS011;75053;51.080;13.712;2024-03-23T08:43:24;27.73;;;20.98;;
84818;SDS011;75053;51.080;13.712;2024-03-23T08:45:50;25.13;;;19.25;;
84818;SDS011;75053;51.080;13.712;2024-03-23T08:48:15;26.63;;;18.65;;
84818;SDS011;75053;51.080;13.712;2024-03-23T08:50:41;26.08;;;18.88;;
84818;SDS011;75053;51.080;13.712;2024-03-23T08:53:06;25.80;;;18.35;;
84818;SDS011;75053;51.080;13.712;2024-03-23T08:55:33;26.00;;;16.95;;
84818;SDS011;75053;51.080;13.712;2024-03-23T08:57:58;24.20;;;16.58;;
84818;SDS011;75053;51.080;13.712;2024-03-23T09:00:25;25.52;;;16.20;;
84818;SDS011;75053;51.080;13.712;2024-03-23T09:02:50;20.52;;;16.15;;
84818;SDS011;75053;51.080;13.712;2024-03-23T09:05:16;20.58;;;15.82;;
84818;SDS011;75053;51.080;13.712;2024-03-23T09:07:41;20.75;;;14.82;;
84818;SDS011;75053;51.080;13.712;2024-03-23T09:10:07;18.33;;;14.40;;
84818;SDS011;75053;51.080;13.712;2024-03-23T09:12:33;22.60;;;15.52;;
84818;SDS011;75053;51.080;13.712;2024-03-23T09:14:59;20.25;;;14.93;;
84818;SDS011;75053;51.080;13.712;2024-03-23T09:17:25;21.58;;;14.98;;
84818;SDS011;75053;51.080;13.712;2024-03-23T09:19:51;19.48;;;14.77;;
84818;SDS011;75053;51.080;13.712;2024-03-23T09:22:16;20.55;;;16.08;;
84818;SDS011;75053;51.080;13.712;2024-03-23T09:24:41;18.85;;;14.48;;
84818;SDS011;75053;51.080;13.712;2024-03-23T09:27:07;23.48;;;16.25;;
84818;SDS011;75053;51.080;13.712;2024-03-23T09:29:32;21.27;;;15.80;;
84818;SDS011;75053;51.080;13.712;2024-03-23T09:31:58;15.65;;;11.48;;
84818;SDS011;75053;51.080;13.712;2024-03-23T09:34:23;15.60;;;11.07;;
84818;SDS011;75053;51.080;13.712;2024-03-23T09:36:51;19.15;;;11.52;;
84818;SDS011;75053;51.080;13.712;2024-03-23T09:39:17;13.65;;;9.75;;
84818;SDS011;75053;51.080;13.712;2024-03-23T09:41:46;14.80;;;10.65;;
84818;SDS011;75053;51.080;13.712;2024-03-23T09:44:12;15.70;;;11.65;;
84818;SDS011;75053;51.080;13.712;2024-03-23T09:46:37;19.50;;;10.05;;
84818;SDS011;75053;51.080;13.712;2024-03-23T09:49:04;19.63;;;11.75;;
84818;SDS011;75053;51.080;13.712;2024-03-23T09:51:34;19.00;;;10.73;;
84818;SDS011;75053;51.080;13.712;2024-03-23T09:54:01;17.08;;;8.07;;
84818;SDS011;75053;51.080;13.712;2024-03-23T09:56:26;9.80;;;5.13;;
84818;SDS011;75053;51.080;13.712;2024-03-23T09:58:52;8.15;;;3.08;;
84818;SDS011;75053;51.080;13.712;2024-03-23T10:01:25;5.85;;;2.30;;
84818;SDS011;75053;51.080;13.712;2024-03-23T10:03:51;5.37;;;2.00;;
84818;SDS011;75053;51.080;13.712;2024-03-23T10:06:17;5.63;;;1.57;;
84818;SDS011;75053;51.080;13.712;2024-03-23T10:08:46;3.40;;;1.70;;
84818;SDS011;75053;51.080;13.712;2024-03-23T10:11:13;2.70;;;1.00;;
84818;SDS011;75053;51.080;13.712;2024-03-23T10:13:45;1.63;;;0.80;;
84818;SDS011;75053;51.080;13.712;2024-03-23T10:16:23;2.10;;;0.47;;
84818;SDS011;75053;51.080;13.712;2024-03-23T10:18:49;1.50;;;0.40;;
84818;SDS011;75053;51.080;13.712;2024-03-23T10:21:15;1.23;;;0.43;;
84818;SDS011;75053;51.080;13.712;2024-03-23T10:23:42;0.60;;;0.30;;
84818;SDS011;75053;51.080;13.712;2024-03-23T10:26:18;0.63;;;0.40;;
84818;SDS011;75053;51.080;13.712;2024-03-23T10:31:20;0.43;;;0.27;;
84818;SDS011;75053;51.080;13.712;2024-03-23T10:33:47;0.20;;;0.20;;
84818;SDS011;75053;51.080;13.712;2024-03-23T10:36:13;0.20;;;0.20;;
84818;SDS011;75053;51.080;13.712;2024-03-23T10:38:40;1.23;;;0.30;;
84818;SDS011;75053;51.080;13.712;2024-03-23T10:41:07;0.97;;;0.77;;
84818;SDS011;75053;51.080;13.712;2024-03-23T10:43:39;2.13;;;0.93;;
84818;SDS011;75053;51.080;13.712;2024-03-23T10:46:05;0.30;;;0.30;;
84818;SDS011;75053;51.080;13.712;2024-03-23T10:48:31;1.50;;;0.70;;
84818;SDS011;75053;51.080;13.712;2024-03-23T10:50:58;0.70;;;0.33;;
84818;SDS011;75053;51.080;13.712;2024-03-23T10:53:26;0.83;;;0.70;;
84818;SDS011;75053;51.080;13.712;2024-03-23T10:55:53;3.50;;;0.53;;
84818;SDS011;75053;51.080;13.712;2024-03-23T10:58:21;0.60;;;0.53;;
84818;SDS011;75053;51.080;13.712;2024-03-23T11:00:51;0.27;;;0.20;;
84818;SDS011;75053;51.080;13.712;2024-03-23T11:06:33;0.50;;;0.50;;
84818;SDS011;75053;51.080;13.712;2024-03-23T11:09:03;0.60;;;0.60;;
84818;SDS011;75053;51.080;13.712;2024-03-23T11:11:29;2.33;;;0.93;;
84818;SDS011;75053;51.080;13.712;2024-03-23T11:13:59;1.13;;;0.40;;
84818;SDS011;75053;51.080;13.712;2024-03-23T11:16:26;0.30;;;0.30;;
84818;SDS011;75053;51.080;13.712;2024-03-23T11:18:53;2.30;;;1.67;;
84818;SDS011;75053;51.080;13.712;2024-03-23T11:24:20;0.73;;;0.60;;
84818;SDS011;75053;51.080;13.712;2024-03-23T11:27:02;0.60;;;0.47;;
84818;SDS011;75053;51.080;13.712;2024-03-23T11:33:06;1.33;;;0.60;;
84818;SDS011;75053;51.080;13.712;2024-03-23T11:55:50;0.53;;;0.53;;
84818;SDS011;75053;51.080;13.712;2024-03-23T11:58:18;2.20;;;0.50;;
84818;SDS011;75053;51.080;13.712;2024-03-23T12:00:52;0.57;;;0.50;;
84818;SDS011;75053;51.080;13.712;2024-03-23T12:03:18;0.30;;;0.30;;
84818;SDS011;75053;51.080;13.712;2024-03-23T12:05:47;4.17;;;0.63;;
84818;SDS011;75053;51.080;13.712;2024-03-23T12:08:18;0.83;;;0.70;;
84818;SDS011;75053;51.080;13.712;2024-03-23T12:10:50;0.73;;;0.50;;
84818;SDS011;75053;51.080;13.712;2024-03-23T12:13:16;0.40;;;0.40;;
84818;SDS011;75053;51.080;13.712;2024-03-23T12:15:46;0.30;;;0.30;;
84818;SDS011;75053;51.080;13.712;2024-03-23T12:18:14;1.17;;;0.50;;
84818;SDS011;75053;51.080;13.712;2024-03-23T12:20:41;0.97;;;0.80;;
84818;SDS011;75053;51.080;13.712;2024-03-23T12:23:08;0.50;;;0.40;;
84818;SDS011;75053;51.080;13.712;2024-03-23T12:25:35;0.60;;;0.60;;
84818;SDS011;75053;51.080;13.712;2024-03-23T12:28:01;0.30;;;0.30;;
84818;SDS011;75053;51.080;13.712;2024-03-23T12:30:27;4.30;;;1.00;;
84818;SDS011;75053;51.080;13.712;2024-03-23T12:32:52;0.50;;;0.50;;
84818;SDS011;75053;51.080;13.712;2024-03-23T12:35:18;6.40;;;0.70;;
84818;SDS011;75053;51.080;13.712;2024-03-23T12:37:43;0.67;;;0.67;;
84818;SDS011;75053;51.080;13.712;2024-03-23T12:40:09;0.90;;;0.90;;
84818;SDS011;75053;51.080;13.712;2024-03-23T12:42:35;0.90;;;0.90;;
84818;SDS011;75053;51.080;13.712;2024-03-23T12:45:00;0.93;;;0.93;;
84818;SDS011;75053;51.080;13.712;2024-03-23T12:47:26;1.03;;;1.03;;
84818;SDS011;75053;51.080;13.712;2024-03-23T12:49:52;1.10;;;1.10;;
84818;SDS011;75053;51.080;13.712;2024-03-23T12:52:17;0.90;;;0.90;;
84818;SDS011;75053;51.080;13.712;2024-03-23T12:54:45;1.70;;;1.60;;
84818;SDS011;75053;51.080;13.712;2024-03-23T12:57:10;0.80;;;0.80;;
84818;SDS011;75053;51.080;13.712;2024-03-23T12:59:35;1.53;;;1.47;;
84818;SDS011;75053;51.080;13.712;2024-03-23T13:02:01;1.70;;;1.50;;
84818;SDS011;75053;51.080;13.712;2024-03-23T13:04:26;2.40;;;2.30;;
84818;SDS011;75053;51.080;13.712;2024-03-23T13:06:52;1.80;;;1.70;;
84818;SDS011;75053;51.080;13.712;2024-03-23T13:09:17;1.80;;;1.70;;
84818;SDS011;75053;51.080;13.712;2024-03-23T13:11:43;1.50;;;1.50;;
84818;SDS011;75053;51.080;13.712;2024-03-23T13:14:09;1.60;;;1.60;;
84818;SDS011;75053;51.080;13.712;2024-03-23T13:16:35;2.20;;;2.00;;
84818;SDS011;75053;51.080;13.712;2024-03-23T13:19:00;1.63;;;1.57;;
84818;SDS011;75053;51.080;13.712;2024-03-23T13:21:29;1.80;;;1.30;;
84818;SDS011;75053;51.080;13.712;2024-03-23T13:23:54;1.10;;;1.10;;
84818;SDS011;75053;51.080;13.712;2024-03-23T13:26:20;3.23;;;1.47;;
84818;SDS011;75053;51.080;13.712;2024-03-23T13:28:48;1.37;;;1.10;;
84818;SDS011;75053;51.080;13.712;2024-03-23T13:31:13;2.77;;;1.90;;
84818;SDS011;75053;51.080;13.712;2024-03-23T13:33:39;3.70;;;1.60;;
84818;SDS011;75053;51.080;13.712;2024-03-23T13:36:05;2.07;;;1.00;;
84818;SDS011;75053;51.080;13.712;2024-03-23T13:38:30;4.60;;;1.40;;
84818;SDS011;75053;51.080;13.712;2024-03-23T13:40:56;5.93;;;1.40;;
84818;SDS011;75053;51.080;13.712;2024-03-23T13:43:25;7.80;;;1.67;;
84818;SDS011;75053;51.080;13.712;2024-03-23T13:45:55;2.97;;;1.43;;
84818;SDS011;75053;51.080;13.712;2024-03-23T13:48:26;4.33;;;1.40;;
84818;SDS011;75053;51.080;13.712;2024-03-23T13:50:57;3.63;;;1.10;;
84818;SDS011;75053;51.080;13.712;2024-03-23T13:53:26;5.50;;;1.13;;
84818;SDS011;75053;51.080;13.712;2024-03-23T13:55:52;0.93;;;0.93;;
84818;SDS011;75053;51.080;13.712;2024-03-23T13:58:18;1.45;;;0.80;;
84818;SDS011;75053;51.080;13.712;2024-03-23T14:00:43;2.70;;;1.08;;
84818;SDS011;75053;51.080;13.712;2024-03-23T14:03:09;2.03;;;1.80;;
84818;SDS011;75053;51.080;13.712;2024-03-23T14:05:35;4.40;;;1.10;;
84818;SDS011;75053;51.080;13.712;2024-03-23T14:08:03;4.50;;;1.25;;
84818;SDS011;75053;51.080;13.712;2024-03-23T14:10:32;3.35;;;1.40;;
84818;SDS011;75053;51.080;13.712;2024-03-23T14:12:57;3.30;;;1.13;;
84818;SDS011;75053;51.080;13.712;2024-03-23T14:15:25;3.78;;;1.73;;
84818;SDS011;75053;51.080;13.712;2024-03-23T14:17:51;4.05;;;1.00;;
84818;SDS011;75053;51.080;13.712;2024-03-23T14:20:17;1.83;;;1.05;;
84818;SDS011;75053;51.080;13.712;2024-03-23T14:22:42;4.88;;;1.15;;
84818;SDS011;75053;51.080;13.712;2024-03-23T14:25:08;4.97;;;1.30;;
84818;SDS011;75053;51.080;13.712;2024-03-23T14:27:34;4.43;;;1.42;;
84818;SDS011;75053;51.080;13.712;2024-03-23T14:30:02;5.70;;;0.95;;
84818;SDS011;75053;51.080;13.712;2024-03-23T14:32:29;3.83;;;1.35;;
84818;SDS011;75053;51.080;13.712;2024-03-23T14:35:01;4.18;;;1.45;;
84818;SDS011;75053;51.080;13.712;2024-03-23T14:37:30;5.55;;;1.30;;
84818;SDS011;75053;51.080;13.712;2024-03-23T14:39:56;5.35;;;1.33;;
84818;SDS011;75053;51.080;13.712;2024-03-23T14:42:22;3.60;;;1.33;;
84818;SDS011;75053;51.080;13.712;2024-03-23T14:44:48;4.43;;;1.80;;
84818;SDS011;75053;51.080;13.712;2024-03-23T14:47:14;6.88;;;1.60;;
84818;SDS011;75053;51.080;13.712;2024-03-23T14:49:40;5.15;;;1.75;;
84818;SDS011;75053;51.080;13.712;2024-03-23T14:52:06;5.88;;;1.65;;
84818;SDS011;75053;51.080;13.712;2024-03-23T14:54:32;5.45;;;1.38;;
84818;SDS011;75053;51.080;13.712;2024-03-23T14:56:57;5.45;;;1.27;;
84818;SDS011;75053;51.080;13.712;2024-03-23T14:59:25;4.57;;;1.50;;
84818;SDS011;75053;51.080;13.712;2024-03-23T15:01:51;6.03;;;1.55;;
84818;SDS011;75053;51.080;13.712;2024-03-23T15:04:17;5.43;;;1.98;;
84818;SDS011;75053;51.080;13.712;2024-03-23T15:06:42;5.07;;;1.65;;
84818;SDS011;75053;51.080;13.712;2024-03-23T15:09:07;6.15;;;1.92;;
84818;SDS011;75053;51.080;13.712;2024-03-23T15:11:36;4.93;;;1.58;;
84818;SDS011;75053;51.080;13.712;2024-03-23T15:14:02;6.18;;;1.30;;
84818;SDS011;75053;51.080;13.712;2024-03-23T15:16:27;7.63;;;1.90;;
84818;SDS011;75053;51.080;13.712;2024-03-23T15:18:52;5.38;;;1.52;;
84818;SDS011;75053;51.080;13.712;2024-03-23T15:21:18;4.18;;;1.42;;
84818;SDS011;75053;51.080;13.712;2024-03-23T15:23:46;4.22;;;1.42;;
84818;SDS011;75053;51.080;13.712;2024-03-23T15:26:12;6.40;;;1.98;;
84818;SDS011;75053;51.080;13.712;2024-03-23T15:28:39;4.70;;;1.55;;
84818;SDS011;75053;51.080;13.712;2024-03-23T15:31:28;4.38;;;1.58;;
84818;SDS011;75053;51.080;13.712;2024-03-23T15:33:55;6.60;;;1.65;;
84818;SDS011;75053;51.080;13.712;2024-03-23T15:36:20;7.85;;;1.75;;
84818;SDS011;75053;51.080;13.712;2024-03-23T15:38:46;2.50;;;1.42;;
84818;SDS011;75053;51.080;13.712;2024-03-23T15:41:14;1.38;;;1.27;;
84818;SDS011;75053;51.080;13.712;2024-03-23T15:43:39;4.50;;;1.60;;
84818;SDS011;75053;51.080;13.712;2024-03-23T15:46:06;3.63;;;1.85;;
84818;SDS011;75053;51.080;13.712;2024-03-23T15:48:32;5.95;;;1.77;;
84818;SDS011;75053;51.080;13.712;2024-03-23T15:51:01;7.50;;;2.25;;